Time;durP1;ratioP1;P1;durP2;ratioP2;P2;SDS_P1;SDS_P2;PMS_P1;PMS_P2;Temp;Humidity;BMP_temperature;BMP_pressure;BME280_temperature;BME280_humidity;BME280_pressure;Samples;Min_cycle;Max_cycle;Signal;HPM_P1;HPM_P2
2021/10/11 00:00:45;;;;;;;48.42;27.45;;;3.00;99.90;;;;;;6253654;22;20024;-88
2021/10/11 00:03:32;;;;;;;41.88;26.45;;;2.90;99.90;;;;;;6274324;22;20157;-89
2021/10/11 00:06:22;;;;;;;44.53;27.98;;;2.90;99.90;;;;;;6273494;22;20023;-89
2021/10/11 00:09:11;;;;;;;57.60;31.30;;;2.70;99.90;;;;;;6252328;22;20038;-87
2021/10/11 00:12:00;;;;;;;57.72;33.88;;;2.70;99.90;;;;;;6254970;22;20030;-88
2021/10/11 00:14:48;;;;;;;57.40;35.00;;;2.70;99.90;;;;;;6253924;22;20024;-87
2021/10/11 00:17:35;;;;;;;67.72;38.08;;;2.80;99.90;;;;;;6252924;22;20078;-88
2021/10/11 00:20:26;;;;;;;66.38;36.30;;;2.90;99.90;;;;;;6254146;22;20077;-88
2021/10/11 00:23:15;;;;;;;54.40;30.85;;;3.00;99.90;;;;;;6274449;22;20026;-88
2021/10/11 00:26:02;;;;;;;56.17;31.80;;;2.90;99.90;;;;;;6273139;22;20077;-87
2021/10/11 00:28:54;;;;;;;59.58;30.80;;;2.80;99.90;;;;;;6275331;22;20334;-87
2021/10/11 00:31:42;;;;;;;51.25;29.55;;;2.70;99.90;;;;;;6232817;22;20081;-86
2021/10/11 00:34:33;;;;;;;56.63;31.65;;;2.60;99.90;;;;;;6251061;22;20473;-87
2021/10/11 00:37:21;;;;;;;51.03;31.23;;;2.50;99.90;;;;;;6273860;22;20073;-87
2021/10/11 00:40:09;;;;;;;56.17;33.15;;;2.50;99.90;;;;;;6252944;22;20038;-89
2021/10/11 00:42:56;;;;;;;58.08;31.90;;;2.50;99.90;;;;;;6231830;22;20430;-89
2021/10/11 00:45:44;;;;;;;54.03;31.20;;;2.50;99.90;;;;;;6229386;22;20020;-88
2021/10/11 00:48:31;;;;;;;56.10;31.23;;;2.40;99.90;;;;;;6250973;22;20551;-88
2021/10/11 00:51:18;;;;;;;51.17;29.77;;;2.30;99.90;;;;;;6231424;22;20032;-87
2021/10/11 00:54:06;;;;;;;47.78;29.60;;;2.30;99.90;;;;;;6275438;22;20138;-89
2021/10/11 00:56:53;;;;;;;58.70;31.95;;;2.20;99.90;;;;;;6250940;22;20372;-89
2021/10/11 00:59:41;;;;;;;54.03;31.00;;;2.10;99.90;;;;;;6274703;22;20031;-88
2021/10/11 01:02:29;;;;;;;50.03;30.80;;;2.10;99.90;;;;;;6251882;22;20023;-88
2021/10/11 01:05:18;;;;;;;49.83;29.88;;;2.00;99.90;;;;;;6250776;22;20109;-87
2021/10/11 01:08:05;;;;;;;52.08;30.02;;;2.00;99.90;;;;;;6275158;22;20032;-87
2021/10/11 01:10:56;;;;;;;53.90;31.30;;;1.90;99.90;;;;;;6253532;22;20036;-87
2021/10/11 01:13:45;;;;;;;57.20;32.35;;;1.90;99.90;;;;;;6254395;22;20110;-87
2021/10/11 01:16:33;;;;;;;56.65;33.25;;;1.90;99.90;;;;;;6274698;22;20409;-87
2021/10/11 01:19:24;;;;;;;53.03;31.25;;;2.00;99.90;;;;;;6277242;22;20114;-87
2021/10/11 01:22:13;;;;;;;61.55;31.83;;;1.90;99.90;;;;;;6254298;22;20054;-86
2021/10/11 01:25:00;;;;;;;55.88;31.42;;;1.90;99.90;;;;;;6256234;22;20031;-87
2021/10/11 01:27:48;;;;;;;53.00;30.83;;;1.80;99.90;;;;;;6275472;22;20132;-87
2021/10/11 01:30:35;;;;;;;55.40;31.63;;;1.80;99.90;;;;;;6273966;22;20065;-88
2021/10/11 01:33:22;;;;;;;63.38;35.08;;;1.70;99.90;;;;;;6254675;22;20020;-87
2021/10/11 01:36:09;;;;;;;68.63;34.85;;;1.80;99.90;;;;;;6276669;22;20035;-87
2021/10/11 01:39:00;;;;;;;67.18;37.38;;;1.70;99.90;;;;;;6232856;22;20104;-87
2021/10/11 01:41:47;;;;;;;62.63;35.97;;;1.70;99.90;;;;;;6274829;22;20023;-85
2021/10/11 01:44:35;;;;;;;64.72;37.75;;;1.80;99.90;;;;;;6254321;22;20085;-87
2021/10/11 01:47:25;;;;;;;77.93;41.35;;;1.80;99.90;;;;;;6276080;22;20055;-89
2021/10/11 01:50:12;;;;;;;77.55;41.67;;;1.90;99.90;;;;;;6256228;22;20141;-88
2021/10/11 01:52:59;;;;;;;87.38;44.72;;;2.00;99.90;;;;;;6277841;22;20020;-88
2021/10/11 01:55:47;;;;;;;80.45;43.85;;;2.10;99.90;;;;;;6232662;22;20051;-88
2021/10/11 01:58:36;;;;;;;83.75;43.58;;;2.10;99.90;;;;;;6254893;22;20035;-88
2021/10/11 02:01:24;;;;;;;76.55;42.55;;;2.10;99.90;;;;;;6263939;22;20051;-88
2021/10/11 02:04:11;;;;;;;71.82;41.55;;;2.20;99.90;;;;;;6247209;22;20024;-87
2021/10/11 02:06:58;;;;;;;83.18;42.45;;;2.20;99.90;;;;;;6283249;22;20027;-89
2021/10/11 02:09:46;;;;;;;73.88;40.13;;;2.20;99.90;;;;;;6252174;22;20110;-87
2021/10/11 02:12:33;;;;;;;78.20;41.50;;;2.30;99.90;;;;;;6277379;22;20103;-88
2021/10/11 02:15:21;;;;;;;82.60;42.38;;;2.30;99.90;;;;;;6254338;22;20038;-88
2021/10/11 02:18:14;;;;;;;78.20;40.42;;;2.40;99.90;;;;;;6253866;22;20421;-88
2021/10/11 02:21:04;;;;;;;63.42;32.35;;;2.30;99.90;;;;;;6279794;22;20050;-88
2021/10/11 02:23:51;;;;;;;79.25;40.05;;;2.30;99.90;;;;;;6265202;22;20026;-89
2021/10/11 02:26:41;;;;;;;81.57;42.25;;;2.30;99.90;;;;;;6261024;22;20034;-87
2021/10/11 02:29:31;;;;;;;76.35;40.33;;;2.30;99.90;;;;;;6232680;22;20130;-88
2021/10/11 02:32:21;;;;;;;72.25;39.05;;;2.20;99.90;;;;;;6256533;22;20380;-87
2021/10/11 02:35:08;;;;;;;73.72;39.30;;;2.20;99.90;;;;;;6276111;22;20071;-88
2021/10/11 02:37:56;;;;;;;76.15;39.42;;;2.10;99.90;;;;;;6251499;22;20023;-87
2021/10/11 02:40:45;;;;;;;65.55;39.38;;;2.10;99.90;;;;;;6277099;22;20064;-87
2021/10/11 02:43:35;;;;;;;66.70;38.17;;;2.10;99.90;;;;;;6273971;22;20028;-88
2021/10/11 02:46:22;;;;;;;71.60;39.00;;;2.00;99.90;;;;;;6239983;22;20059;-87
2021/10/11 02:49:11;;;;;;;72.57;38.92;;;2.10;99.90;;;;;;6219482;22;20065;-87
2021/10/11 02:51:59;;;;;;;65.13;38.70;;;2.00;99.90;;;;;;6265287;22;20057;-87
2021/10/11 02:54:46;;;;;;;78.03;41.42;;;2.10;99.90;;;;;;6258289;22;20048;-88
2021/10/11 02:57:34;;;;;;;71.22;39.63;;;2.20;99.90;;;;;;6257264;22;20486;-88
2021/10/11 03:00:21;;;;;;;73.53;40.55;;;2.10;99.90;;;;;;6275891;22;20028;-87
2021/10/11 03:03:08;;;;;;;79.32;41.08;;;2.20;99.90;;;;;;6255325;22;20392;-89
2021/10/11 03:05:56;;;;;;;77.88;41.40;;;2.10;99.90;;;;;;6254002;22;20445;-89
2021/10/11 03:08:43;;;;;;;75.75;41.03;;;2.10;99.90;;;;;;6254015;22;20051;-89
2021/10/11 03:11:30;;;;;;;70.20;36.97;;;2.10;99.90;;;;;;6232059;22;20147;-88
2021/10/11 03:14:18;;;;;;;72.55;39.65;;;2.00;99.90;;;;;;6275122;22;20035;-88
2021/10/11 03:17:05;;;;;;;74.95;39.50;;;1.90;99.90;;;;;;6275135;22;20024;-89
2021/10/11 03:19:52;;;;;;;70.82;40.35;;;1.90;99.90;;;;;;6275807;22;20111;-88
2021/10/11 03:22:40;;;;;;;70.68;38.90;;;1.90;99.90;;;;;;6274225;22;20358;-89
2021/10/11 03:25:27;;;;;;;66.20;36.85;;;1.80;99.90;;;;;;6251621;22;20093;-89
2021/10/11 03:28:14;;;;;;;72.88;38.38;;;1.80;99.90;;;;;;6274566;22;20114;-90
2021/10/11 03:31:02;;;;;;;76.68;40.13;;;1.80;99.90;;;;;;6230882;22;20028;-89
2021/10/11 03:33:50;;;;;;;80.18;40.38;;;1.80;99.90;;;;;;6276255;22;20031;-89
2021/10/11 03:36:44;;;;;;;76.35;41.10;;;1.90;99.90;;;;;;6251067;22;20316;-89
2021/10/11 03:39:31;;;;;;;80.07;41.75;;;1.90;99.90;;;;;;6255222;22;20446;-87
2021/10/11 03:42:19;;;;;;;75.45;41.22;;;2.00;99.90;;;;;;6256713;22;20081;-91
2021/10/11 03:45:08;;;;;;;76.22;40.88;;;2.00;99.90;;;;;;6260759;22;20039;-91
2021/10/11 03:47:57;;;;;;;76.05;39.45;;;1.90;99.90;;;;;;6265978;22;20032;-93
2021/10/11 03:50:46;;;;;;;70.50;39.63;;;1.80;99.90;;;;;;6260271;22;20096;-92
2021/10/11 03:53:34;;;;;;;78.18;40.92;;;1.70;99.90;;;;;;6245302;22;20366;-91
2021/10/11 03:56:27;;;;;;;70.70;39.63;;;1.70;99.90;;;;;;6282325;22;20027;-92
2021/10/11 03:59:15;;;;;;;73.63;41.38;;;1.70;99.90;;;;;;6252420;22;20418;-90
2021/10/11 04:02:04;;;;;;;74.65;40.90;;;1.70;99.90;;;;;;6265936;22;20024;-91
2021/10/11 04:04:57;;;;;;;84.07;41.57;;;1.70;99.90;;;;;;6262356;22;20046;-92
2021/10/11 04:07:49;;;;;;;81.13;42.90;;;1.80;99.90;;;;;;6284611;22;20031;-92
2021/10/11 04:14:29;;;;;;;;;;;;;;;;;;;;;
2021/10/11 04:18:18;;;;;;;;;;;;;;;;;;;;;
2021/10/11 04:26:17;;;;;;;;;;;;;;;;;;;;;
2021/10/11 04:29:44;;;;;;;;;;;;;;;;;;;;;
2021/10/11 04:37:42;;;;;;;;;;;;;;;;;;;;;
2021/10/11 04:40:52;;;;;;;90.03;47.17;;;2.10;99.90;;;;;;5979785;23;20028;-86
2021/10/11 04:43:41;;;;;;;99.68;47.25;;;2.10;99.90;;;;;;5980071;24;20103;-86
2021/10/11 04:46:28;;;;;;;90.45;46.30;;;2.00;99.90;;;;;;5995801;23;20031;-86
2021/10/11 04:49:16;;;;;;;97.78;47.92;;;2.00;99.90;;;;;;6096875;23;20026;-87
2021/10/11 04:52:07;;;;;;;95.18;48.03;;;2.00;99.90;;;;;;6106215;23;20116;-86
2021/10/11 04:54:54;;;;;;;105.63;50.30;;;2.00;99.90;;;;;;6104431;23;20098;-87
2021/10/11 04:57:44;;;;;;;103.38;50.60;;;2.10;99.90;;;;;;6097510;23;20121;-86
2021/10/11 05:00:32;;;;;;;110.93;50.78;;;2.20;99.90;;;;;;6094302;23;20085;-86
2021/10/11 05:03:22;;;;;;;95.32;48.42;;;2.20;99.90;;;;;;6095557;23;20486;-89
2021/10/11 05:06:09;;;;;;;101.97;48.47;;;2.30;99.90;;;;;;6071246;23;20441;-85
2021/10/11 05:09:00;;;;;;;90.10;46.72;;;2.30;99.90;;;;;;6092065;23;20038;-86
2021/10/11 05:11:49;;;;;;;102.40;47.97;;;2.40;99.90;;;;;;6092516;23;20042;-86
2021/10/11 05:14:37;;;;;;;97.57;48.10;;;2.50;99.90;;;;;;6093333;23;20049;-87
2021/10/11 05:17:25;;;;;;;96.07;46.38;;;2.50;99.90;;;;;;6090889;23;20741;-85
2021/10/11 05:20:17;;;;;;;91.47;45.53;;;2.40;99.90;;;;;;6077141;23;20054;-86
2021/10/11 05:23:06;;;;;;;93.47;46.20;;;2.40;99.90;;;;;;6074364;23;20026;-89
2021/10/11 05:25:55;;;;;;;94.18;46.65;;;2.40;99.90;;;;;;6056409;23;20026;-90
2021/10/11 05:28:44;;;;;;;82.63;44.75;;;2.50;99.90;;;;;;6078789;23;20022;-90
2021/10/11 05:31:32;;;;;;;87.43;42.97;;;2.50;99.90;;;;;;6074979;23;20038;-91
2021/10/11 05:34:28;;;;;;;65.25;31.02;;;2.40;99.90;;;;;;6077211;23;20127;-90
2021/10/11 05:37:17;;;;;;;80.93;42.70;;;2.40;99.90;;;;;;6100651;23;20022;-90
2021/10/11 05:40:19;;;;;;;88.45;44.25;;;2.30;99.90;;;;;;6078870;23;20027;-89
2021/10/11 05:43:07;;;;;;;94.38;46.60;;;2.30;99.90;;;;;;6075258;23;20034;-89
2021/10/11 05:45:59;;;;;;;85.80;45.13;;;2.50;99.90;;;;;;6075020;23;20030;-89
2021/10/11 05:48:54;;;;;;;80.80;42.90;;;2.50;99.90;;;;;;6061757;23;20037;-91
2021/10/11 05:51:46;;;;;;;77.07;41.85;;;2.40;99.90;;;;;;6076760;22;20058;-89
2021/10/11 05:54:41;;;;;;;87.50;43.33;;;2.40;99.90;;;;;;6274223;22;20122;-92
2021/10/11 05:57:41;;;;;;;90.15;45.97;;;2.40;99.90;;;;;;6234199;22;20027;-90
2021/10/11 06:00:32;;;;;;;88.03;44.88;;;2.50;99.90;;;;;;6253501;22;20034;-88
2021/10/11 06:03:20;;;;;;;90.63;46.70;;;2.60;99.90;;;;;;6273653;22;20490;-86
2021/10/11 06:06:09;;;;;;;92.95;46.08;;;2.70;99.90;;;;;;6278217;22;20031;-88
2021/10/11 06:09:01;;;;;;;83.88;44.58;;;2.80;99.90;;;;;;6252989;22;20027;-88
2021/10/11 06:11:51;;;;;;;84.88;43.67;;;2.80;99.90;;;;;;6252062;22;20115;-88
2021/10/11 06:14:39;;;;;;;84.63;44.78;;;2.90;99.90;;;;;;6259062;22;20110;-87
2021/10/11 06:17:37;;;;;;;;;;;;;;;;;;;;;
2021/10/11 06:20:26;;;;;;;79.93;42.58;;;2.90;99.90;;;;;;6237679;22;20110;-87
2021/10/11 06:23:21;;;;;;;97.07;46.80;;;2.90;99.90;;;;;;6275740;22;20391;-87
2021/10/11 06:26:25;;;;;;;85.43;44.65;;;3.00;99.90;;;;;;6258799;22;20051;-89
2021/10/11 06:29:15;;;;;;;91.05;46.78;;;3.30;99.90;;;;;;6277124;22;20031;-88
2021/10/11 06:32:03;;;;;;;91.22;47.58;;;3.50;99.90;;;;;;6256038;22;20031;-89
2021/10/11 06:34:56;;;;;;;87.78;45.25;;;3.70;99.90;;;;;;6283012;22;20031;-88
2021/10/11 06:41:00;;;;;;;80.32;41.83;;;4.10;99.90;;;;;;6107227;23;20173;-88
2021/10/11 06:44:01;;;;;;;;;;;;;;;;;;;;;
2021/10/11 06:46:59;;;;;;;66.18;39.05;;;4.40;99.90;;;;;;6259731;22;20046;-87
2021/10/11 06:49:47;;;;;;;60.70;36.33;;;4.40;99.90;;;;;;6257517;22;20081;-89
2021/10/11 06:52:40;;;;;;;58.05;34.83;;;4.40;99.90;;;;;;6258925;22;20140;-90
2021/10/11 06:55:53;;;;;;;60.67;34.13;;;4.30;99.90;;;;;;6283262;22;20019;-90
2021/10/11 06:58:48;;;;;;;56.42;31.83;;;4.30;99.90;;;;;;6246578;22;20020;-88
2021/10/11 07:01:44;;;;;;;51.08;33.00;;;4.40;99.90;;;;;;6281451;22;20039;-90
2021/10/11 07:05:04;;;;;;;48.38;31.27;;;4.60;99.90;;;;;;6261939;22;20357;-90
2021/10/11 07:08:10;;;;;;;;;;;;;;;;;;;;;
2021/10/11 07:11:13;;;;;;;52.40;30.08;;;5.00;99.90;;;;;;6277853;22;20035;-91
2021/10/11 07:14:23;;;;;;;51.53;27.98;;;5.20;99.90;;;;;;6276083;22;20031;-90
2021/10/11 07:17:14;;;;;;;41.17;26.02;;;5.40;99.90;;;;;;6256178;22;20434;-91
2021/10/11 07:20:34;;;;;;;39.58;24.13;;;5.80;99.90;;;;;;6255323;22;20020;-90
2021/10/11 07:23:24;;;;;;;47.28;24.05;;;6.20;99.90;;;;;;6253540;22;20231;-90
2021/10/11 07:29:42;;;;;;;31.45;20.40;;;6.60;99.90;;;;;;6279802;22;20085;-91
2021/10/11 07:33:07;;;;;;;31.58;20.73;;;7.00;99.90;;;;;;6276761;22;20031;-91
2021/10/11 07:36:01;;;;;;;32.55;19.17;;;7.20;99.90;;;;;;6281274;22;20039;-88
2021/10/11 07:38:56;;;;;;;38.90;20.35;;;7.40;99.90;;;;;;6273689;22;20053;-88
2021/10/11 07:42:06;;;;;;;29.52;19.75;;;7.40;99.90;;;;;;6184441;23;20025;-90
2021/10/11 07:50:22;;;;;;;;;;;;;;;;;;;;;
2021/10/11 08:01:19;;;;;;;30.48;18.45;;;8.90;99.90;;;;;;5960257;24;20024;-90
2021/10/11 08:04:25;;;;;;;30.17;17.33;;;9.30;99.90;;;;;;5983018;24;20103;-91
2021/10/11 08:07:31;;;;;;;26.98;17.83;;;9.50;99.90;;;;;;5965532;24;20032;-90
2021/10/11 08:10:44;;;;;;;22.88;15.05;;;9.60;99.90;;;;;;5980816;23;20040;-92
2021/10/11 08:13:45;;;;;;;22.00;16.13;;;9.80;99.90;;;;;;6042007;23;20024;-88
2021/10/11 08:16:53;;;;;;;24.73;16.20;;;10.00;99.90;;;;;;6036697;23;20103;-90
2021/10/11 08:19:58;;;;;;;;;;;;;;;;;;;;;
2021/10/11 08:23:11;;;;;;;24.50;16.85;;;10.40;99.90;;;;;;6030872;23;20436;-90
2021/10/11 08:26:18;;;;;;;24.73;15.48;;;10.70;99.90;;;;;;6091424;23;20066;-88
2021/10/11 08:29:12;;;;;;;24.05;15.68;;;10.70;99.90;;;;;;6120566;23;20173;-90
2021/10/11 08:32:05;;;;;;;21.90;14.85;;;10.90;99.90;;;;;;6107463;23;20104;-88
2021/10/11 08:34:53;;;;;;;18.73;10.98;;;11.00;99.90;;;;;;6100969;23;20061;-89
2021/10/11 08:38:17;;;;;;;;;;;;;;;;;;;;;
2021/10/11 08:41:17;;;;;;;23.98;13.90;;;11.60;99.90;;;;;;6203331;22;20038;-90
2021/10/11 08:44:42;;;;;;;;;;;;;;;;;;;;;
2021/10/11 08:47:50;;;;;;;24.75;13.70;;;11.80;99.90;;;;;;6068914;23;20041;-90
2021/10/11 08:51:05;;;;;;;20.67;13.90;;;12.00;99.90;;;;;;5993689;23;20433;-90
2021/10/11 08:53:55;;;;;;;19.70;12.43;;;12.10;99.90;;;;;;6011071;23;20114;-90
2021/10/11 08:56:58;;;;;;;;;;;;;;;;;;;;;
2021/10/11 09:00:18;;;;;;;19.95;12.85;;;12.20;99.90;;;;;;6003134;23;20028;-90
2021/10/11 09:03:48;;;;;;;25.38;13.30;;;12.70;99.90;;;;;;6132549;23;20108;-91
2021/10/11 09:07:06;;;;;;;17.13;11.52;;;13.50;99.90;;;;;;6122275;23;20033;-91
2021/10/11 09:10:17;;;;;;;16.90;11.73;;;14.90;97.80;;;;;;6253611;22;20027;-89
2021/10/11 09:13:51;;;;;;;;;;;;;;;;;;;;;
2021/10/11 09:17:10;;;;;;;17.75;11.07;;;16.70;88.40;;;;;;6273001;22;20028;-91
2021/10/11 09:28:18;;;;;;;21.25;12.02;;;15.60;80.60;;;;;;6063925;23;20433;-90
2021/10/11 09:32:34;;;;;;;18.17;11.07;;;15.80;82.30;;;;;;6042635;23;20030;-91
2021/10/11 09:36:02;;;;;;;;;;;;;;;;;;;;;
2021/10/11 09:39:30;;;;;;;16.70;10.93;;;15.70;82.10;;;;;;5979394;24;20024;-93
2021/10/11 09:43:01;;;;;;;;;;;;;;;;;;;;;
2021/10/11 09:46:49;;;;;;;17.38;11.07;;;16.40;80.20;;;;;;5938324;24;20029;-92
2021/10/11 09:49:48;;;;;;;20.23;11.60;;;17.10;78.40;;;;;;5970335;23;20084;-90
2021/10/11 09:52:47;;;;;;;21.98;11.43;;;17.50;73.30;;;;;;5972610;23;20096;-90
2021/10/11 09:55:51;;;;;;;;;;;;;;;;;;;;;
2021/10/11 09:59:07;;;;;;;16.25;10.98;;;19.10;66.50;;;;;;5966443;24;20281;-90
2021/10/11 10:02:07;;;;;;;;;;;;;;;;;;;;;
2021/10/11 10:05:11;;;;;;;13.68;9.95;;;20.60;60.10;;;;;;6137972;23;20057;-92
2021/10/11 10:08:41;;;;;;;15.55;10.10;;;21.60;54.50;;;;;;6134336;23;20520;-92
2021/10/11 10:11:57;;;;;;;16.58;11.80;;;22.30;51.70;;;;;;6023325;23;20156;-91
2021/10/11 10:15:03;;;;;;;16.70;11.63;;;21.30;53.00;;;;;;6041821;23;20075;-91
2021/10/11 10:18:21;;;;;;;;;;;;;;;;;;;;;
2021/10/11 10:21:39;;;;;;;20.50;11.15;;;22.40;50.40;;;;;;6155666;23;20123;-91
2021/10/11 10:24:33;;;;;;;12.30;10.25;;;23.00;48.60;;;;;;6157564;23;20021;-92
2021/10/11 10:27:33;;;;;;;18.05;11.38;;;22.70;48.90;;;;;;6159974;23;20126;-91
2021/10/11 10:30:25;;;;;;;18.38;11.02;;;22.40;48.90;;;;;;6271773;22;20471;-92
2021/10/11 10:37:05;;;;;;;15.50;10.55;;;22.20;49.10;;;;;;6235443;22;20411;-91
2021/10/11 10:40:19;;;;;;;;;;;;;;;;;;;;;
2021/10/11 10:43:37;;;;;;;16.43;10.97;;;24.10;44.30;;;;;;6267275;22;20024;-91
2021/10/11 10:46:24;;;;;;;14.98;11.40;;;23.20;45.20;;;;;;6264161;22;20027;-92
2021/10/11 10:49:22;;;;;;;;;;;;;;;;;;;;;
2021/10/11 10:52:42;;;;;;;19.65;12.07;;;22.10;48.60;;;;;;6282542;22;20031;-92
2021/10/11 10:55:41;;;;;;;;;;;;;;;;;;;;;
2021/10/11 10:58:53;;;;;;;;;;;;;;;;;;;;;
2021/10/11 11:01:46;;;;;;;13.40;8.73;;;23.40;44.30;;;;;;6291970;22;20024;-90
2021/10/11 11:04:50;;;;;;;15.57;9.55;;;24.00;45.30;;;;;;6267048;22;20023;-93
2021/10/11 11:07:54;;;;;;;;;;;;;;;;;;;;;
2021/10/11 11:11:01;;;;;;;14.50;10.52;;;24.40;43.10;;;;;;6286974;22;20126;-91
2021/10/11 11:13:56;;;;;;;15.10;11.75;;;22.50;45.50;;;;;;6289472;22;20041;-92
2021/10/11 11:16:54;;;;;;;16.40;11.32;;;21.40;50.30;;;;;;6250410;22;20015;-93
2021/10/11 11:19:48;;;;;;;18.67;10.70;;;21.70;50.20;;;;;;6291471;22;20019;-92
2021/10/11 11:22:35;;;;;;;16.50;10.73;;;22.10;47.40;;;;;;6228657;22;20201;-92
2021/10/11 11:25:51;;;;;;;18.00;10.82;;;22.10;47.40;;;;;;6266225;22;20381;-92
2021/10/11 11:28:43;;;;;;;15.95;10.95;;;22.70;45.80;;;;;;6263864;22;20339;-92
2021/10/11 11:31:46;;;;;;;;;;;;;;;;;;;;;
2021/10/11 11:35:18;;;;;;;16.38;10.60;;;23.30;44.50;;;;;;6281161;22;20028;-92
2021/10/11 11:38:25;;;;;;;;;;;;;;;;;;;;;
2021/10/11 11:41:30;;;;;;;13.05;9.10;;;23.40;45.20;;;;;;6277510;22;20035;-91
2021/10/11 11:44:54;;;;;;;12.85;9.48;;;24.80;44.20;;;;;;6254203;22;20032;-90
2021/10/11 11:47:43;;;;;;;13.93;10.52;;;25.70;41.70;;;;;;6251520;22;20019;-92
2021/10/11 11:50:33;;;;;;;13.40;10.20;;;25.10;42.10;;;;;;6273026;22;20426;-93
2021/10/11 11:53:31;;;;;;;17.08;10.50;;;24.60;43.10;;;;;;6275512;22;20079;-90
2021/10/11 11:56:18;;;;;;;13.57;9.75;;;24.50;43.50;;;;;;6273956;22;20027;-90
2021/10/11 11:59:08;;;;;;;15.35;10.43;;;24.30;43.60;;;;;;6251686;22;20034;-92
2021/10/11 12:02:02;;;;;;;16.33;10.82;;;24.20;43.50;;;;;;6274898;22;20024;-89
2021/10/11 12:04:56;;;;;;;18.02;10.40;;;24.20;44.60;;;;;;6274110;22;20031;-91
2021/10/11 12:07:46;;;;;;;17.45;10.52;;;24.60;42.70;;;;;;6273535;22;20051;-91
2021/10/11 12:10:34;;;;;;;14.57;12.20;;;24.80;43.20;;;;;;6251742;22;20042;-91
2021/10/11 12:13:22;;;;;;;13.68;10.63;;;25.40;42.00;;;;;;6274973;22;20051;-90
2021/10/11 12:16:13;;;;;;;19.75;10.85;;;25.60;41.70;;;;;;6253399;22;20121;-89
2021/10/11 12:19:03;;;;;;;16.15;11.05;;;25.10;42.50;;;;;;6253682;22;20027;-91
2021/10/11 12:21:52;;;;;;;15.50;11.52;;;25.50;42.30;;;;;;6251095;22;20077;-89
2021/10/11 12:24:39;;;;;;;15.35;11.02;;;25.20;41.10;;;;;;6253770;22;20107;-90
2021/10/11 12:27:26;;;;;;;15.45;10.70;;;25.30;41.60;;;;;;6255144;22;20019;-91
2021/10/11 12:30:14;;;;;;;18.08;10.88;;;25.00;42.80;;;;;;6254580;22;20077;-91
2021/10/11 12:33:03;;;;;;;14.25;10.70;;;23.90;44.50;;;;;;6255778;22;20055;-90
2021/10/11 12:36:01;;;;;;;17.42;11.27;;;23.40;45.10;;;;;;6253974;22;20043;-90
2021/10/11 12:38:49;;;;;;;15.75;10.93;;;22.50;47.90;;;;;;6252988;22;20027;-90
2021/10/11 12:41:47;;;;;;;18.17;11.43;;;22.70;47.60;;;;;;6235343;22;20094;-90
2021/10/11 12:44:39;;;;;;;13.18;9.90;;;23.00;47.80;;;;;;6259678;22;20307;-89
2021/10/11 12:47:32;;;;;;;15.25;10.57;;;24.40;44.80;;;;;;6262504;22;20338;-91
2021/10/11 12:50:21;;;;;;;13.52;10.68;;;24.40;43.40;;;;;;6260087;22;20023;-91
2021/10/11 12:53:13;;;;;;;14.90;11.57;;;24.30;44.50;;;;;;6283393;22;20046;-89
2021/10/11 12:56:01;;;;;;;14.93;10.85;;;24.30;43.90;;;;;;6277880;22;20038;-87
2021/10/11 12:59:02;;;;;;;15.75;10.57;;;24.90;43.00;;;;;;6276368;22;20174;-89
2021/10/11 13:01:54;;;;;;;18.23;11.00;;;24.60;43.10;;;;;;6253716;22;20334;-91
2021/10/11 13:04:41;;;;;;;19.65;11.82;;;24.30;44.10;;;;;;6255074;22;20034;-87
2021/10/11 13:07:32;;;;;;;18.10;11.20;;;24.30;43.60;;;;;;6252968;22;20160;-90
2021/10/11 13:10:19;;;;;;;14.02;10.23;;;24.80;42.00;;;;;;6275668;22;20778;-90
2021/10/11 13:13:20;;;;;;;;;;;;;;;;;;;;;
2021/10/11 13:16:22;;;;;;;14.95;10.73;;;24.50;43.30;;;;;;6248643;22;20028;-90
2021/10/11 13:19:13;;;;;;;17.15;11.00;;;24.10;44.20;;;;;;6245811;23;20415;-90
2021/10/11 13:22:01;;;;;;;18.23;11.88;;;24.20;43.90;;;;;;6205052;23;20024;-90
2021/10/11 13:24:49;;;;;;;23.40;14.07;;;23.80;43.50;;;;;;6222483;23;20446;-89
2021/10/11 13:27:38;;;;;;;19.48;13.38;;;23.90;43.80;;;;;;6245430;23;20043;-90
2021/10/11 13:40:41;;;;;;;19.55;15.43;;;23.30;48.00;;;;;;6244654;23;20024;-90
2021/10/11 14:30:07;;;;;;;30.98;20.20;;;14.80;79.80;;;;;;6278134;22;20035;-90
2021/10/11 15:59:53;;;;;;;53.53;32.35;;;11.00;99.90;;;;;;6257772;22;20027;-88
2021/10/11 16:02:43;;;;;;;;;;;11.00;99.90;;;;;;6272949;22;20028;-88
2021/10/11 16:05:33;;;;;;;55.88;31.20;;;10.90;99.90;;;;;;6254674;22;19922;-90
2021/10/11 16:08:23;;;;;;;57.97;30.95;;;10.90;99.90;;;;;;6253633;22;20117;-90
2021/10/11 16:11:10;;;;;;;53.38;31.52;;;10.90;99.90;;;;;;6282496;22;20028;-89
2021/10/11 16:13:58;;;;;;;56.70;32.75;;;10.80;99.90;;;;;;6260521;22;20023;-90
2021/10/11 16:16:45;;;;;;;53.85;32.13;;;10.80;99.90;;;;;;6281232;22;20341;-87
2021/10/11 16:19:33;;;;;;;57.42;32.40;;;10.80;99.90;;;;;;6260775;22;20024;-91
2021/10/11 16:22:21;;;;;;;58.67;30.77;;;10.70;99.90;;;;;;6283600;22;20020;-89
2021/10/11 16:25:09;;;;;;;51.97;32.38;;;10.60;99.90;;;;;;6255774;22;20115;-88
2021/10/11 16:27:56;;;;;;;56.42;31.85;;;10.60;99.90;;;;;;6278009;22;20042;-87
2021/10/11 16:30:44;;;;;;;52.75;31.52;;;10.60;99.90;;;;;;6255705;22;20449;-88
2021/10/11 16:33:31;;;;;;;46.08;28.73;;;10.60;99.90;;;;;;6251774;22;20051;-87
2021/10/11 16:36:19;;;;;;;45.25;29.17;;;10.50;99.90;;;;;;6274946;22;20023;-87
2021/10/11 16:39:06;;;;;;;51.92;29.83;;;10.50;99.90;;;;;;6250929;22;20035;-88
2021/10/11 16:41:57;;;;;;;48.80;28.00;;;10.50;99.90;;;;;;6275047;22;20020;-89
2021/10/11 16:44:44;;;;;;;55.75;28.85;;;10.50;99.90;;;;;;6273733;22;20300;-89
2021/10/11 16:47:31;;;;;;;49.40;29.05;;;10.40;99.90;;;;;;6272177;22;20035;-89
2021/10/11 16:50:19;;;;;;;43.83;26.88;;;10.40;99.90;;;;;;6273942;22;20054;-88
2021/10/11 16:53:06;;;;;;;42.47;27.65;;;10.30;99.90;;;;;;6231760;22;20059;-89
2021/10/11 16:55:54;;;;;;;47.13;27.45;;;10.30;99.90;;;;;;6277027;22;20028;-89
2021/10/11 16:58:42;;;;;;;49.20;28.80;;;10.30;99.90;;;;;;6274859;22;20089;-91
2021/10/11 17:01:30;;;;;;;44.75;28.92;;;10.20;99.90;;;;;;6274759;22;20083;-89
2021/10/11 17:04:17;;;;;;;44.10;26.77;;;10.20;99.90;;;;;;6273995;22;20337;-89
2021/10/11 17:07:08;;;;;;;42.67;26.80;;;10.20;99.90;;;;;;6274193;22;20113;-87
2021/10/11 17:09:58;;;;;;;42.90;26.50;;;10.20;99.90;;;;;;6277526;22;20019;-89
2021/10/11 17:12:49;;;;;;;43.22;25.63;;;10.20;99.90;;;;;;6273552;22;20058;-87
2021/10/11 17:15:36;;;;;;;45.42;27.73;;;10.20;99.90;;;;;;6249971;22;20032;-89
2021/10/11 17:18:48;;;;;;;41.97;26.77;;;10.10;99.90;;;;;;6244082;23;20024;-87
2021/10/11 17:21:37;;;;;;;42.60;25.45;;;10.10;99.90;;;;;;6242126;23;20030;-88
2021/10/11 17:24:24;;;;;;;43.22;25.65;;;10.00;99.90;;;;;;6220920;23;20024;-88
2021/10/11 17:27:11;;;;;;;42.45;25.52;;;10.00;99.90;;;;;;6244436;23;20028;-87
2021/10/11 17:30:01;;;;;;;41.05;24.80;;;10.00;99.90;;;;;;6240340;23;20024;-89
2021/10/11 17:32:48;;;;;;;39.85;24.60;;;10.00;99.90;;;;;;6218130;23;20028;-89
2021/10/11 17:35:35;;;;;;;38.90;24.17;;;10.00;99.90;;;;;;6246066;23;20055;-88
2021/10/11 17:38:25;;;;;;;42.85;25.23;;;9.90;99.90;;;;;;6245967;23;20039;-88
2021/10/11 17:41:14;;;;;;;43.90;24.48;;;9.90;99.90;;;;;;6242958;23;20024;-89
2021/10/11 17:44:02;;;;;;;45.10;25.23;;;9.90;99.90;;;;;;6200140;23;20085;-87
2021/10/11 17:46:49;;;;;;;38.67;24.10;;;9.80;99.90;;;;;;6242257;23;20078;-87
2021/10/11 17:49:39;;;;;;;40.72;25.35;;;9.80;99.90;;;;;;6220569;23;20028;-90
2021/10/11 17:52:27;;;;;;;37.15;22.95;;;9.90;99.90;;;;;;6242622;23;20027;-87
2021/10/11 17:55:15;;;;;;;39.67;24.67;;;9.80;99.90;;;;;;6224218;23;20023;-88
2021/10/11 17:58:05;;;;;;;39.85;24.02;;;9.80;99.90;;;;;;6243881;23;20036;-89
2021/10/11 18:00:52;;;;;;;39.78;23.70;;;9.80;99.90;;;;;;6223393;23;20465;-87
2021/10/11 18:03:40;;;;;;;37.55;23.25;;;9.80;99.90;;;;;;6223079;23;20064;-87
2021/10/11 18:06:28;;;;;;;39.30;21.98;;;9.80;99.90;;;;;;6246463;23;20115;-89
2021/10/11 18:09:15;;;;;;;37.35;23.85;;;9.70;99.90;;;;;;6243937;23;20318;-89
2021/10/11 18:12:03;;;;;;;42.90;23.48;;;9.70;99.90;;;;;;6205561;23;20035;-88
2021/10/11 18:14:50;;;;;;;36.67;23.85;;;9.70;99.90;;;;;;6222673;23;20028;-87
2021/10/11 18:17:40;;;;;;;38.70;23.05;;;9.70;99.90;;;;;;6243966;23;20055;-90
2021/10/11 18:20:27;;;;;;;43.15;23.42;;;9.70;99.90;;;;;;6222135;23;20107;-88
2021/10/11 18:23:31;;;;;;;41.63;22.67;;;9.70;99.90;;;;;;6244772;23;20024;-87
2021/10/11 18:26:21;;;;;;;36.58;22.15;;;9.70;99.90;;;;;;6244075;23;20020;-88
2021/10/11 18:29:10;;;;;;;34.38;22.20;;;9.70;99.90;;;;;;6245250;23;20035;-89
2021/10/11 18:32:01;;;;;;;35.70;23.58;;;9.70;99.90;;;;;;6202704;23;20075;-89
2021/10/11 18:34:48;;;;;;;39.05;23.35;;;9.60;99.90;;;;;;6245833;23;20024;-90
2021/10/11 18:37:36;;;;;;;35.72;22.90;;;9.60;99.90;;;;;;6222789;23;20039;-88
2021/10/11 18:40:26;;;;;;;32.55;22.13;;;9.60;99.90;;;;;;6224614;23;20031;-90